createdAt,value
2023-04-22T00:01:26.111Z,72.70
2023-04-22T00:04:48.444Z,72.70
2023-04-22T00:08:11.005Z,72.60
2023-04-22T00:11:33.241Z,72.60
2023-04-22T00:14:55.473Z,72.80
2023-04-22T00:18:17.828Z,72.60
2023-04-22T00:21:40.057Z,72.60
2023-04-22T00:25:02.445Z,72.80
2023-04-22T00:28:24.701Z,72.60
2023-04-22T00:31:47.165Z,72.80
2023-04-22T00:35:09.634Z,73.60
2023-04-22T00:38:31.864Z,73.00
2023-04-22T00:41:54.785Z,73.30
2023-04-22T00:45:20.882Z,73.20
2023-04-22T00:48:43.725Z,73.20
2023-04-22T00:52:06.849Z,73.10
2023-04-22T00:55:29.217Z,73.00
2023-04-22T00:58:52.562Z,72.90
2023-04-22T01:02:15.711Z,72.90
2023-04-22T01:05:39.222Z,72.90
2023-04-22T01:09:02.248Z,72.80
2023-04-22T01:12:24.470Z,72.60
2023-04-22T01:15:50.450Z,72.60
2023-04-22T01:19:13.039Z,72.60
2023-04-22T01:22:37.343Z,72.60
2023-04-22T01:26:00.172Z,72.60
2023-04-22T01:29:22.568Z,72.60
2023-04-22T01:32:45.203Z,72.60
2023-04-22T01:36:07.793Z,72.60
2023-04-22T01:39:30.565Z,72.60
2023-04-22T01:42:53.083Z,72.60
2023-04-22T01:46:18.107Z,72.60
2023-04-22T01:49:40.652Z,72.60
2023-04-22T01:53:03.366Z,72.60
2023-04-22T01:56:25.691Z,72.60
2023-04-22T01:59:47.964Z,72.60
2023-04-22T02:03:10.667Z,72.50
2023-04-22T02:06:32.988Z,72.50
2023-04-22T02:09:55.235Z,72.40
2023-04-22T02:13:17.585Z,72.40
2023-04-22T02:16:41.657Z,72.40
2023-04-22T02:20:05.337Z,72.40
2023-04-22T02:23:27.870Z,72.40
2023-04-22T02:26:50.533Z,72.40
2023-04-22T02:30:12.942Z,72.40
2023-04-22T02:33:36.413Z,72.40
2023-04-22T02:36:58.673Z,73.20
2023-04-22T02:40:21.059Z,72.50
2023-04-22T02:43:46.108Z,72.40
2023-04-22T02:47:09.456Z,72.40
2023-04-22T02:50:31.845Z,72.50
2023-04-22T02:53:54.345Z,72.40
2023-04-22T02:57:16.629Z,72.40
2023-04-22T03:00:38.940Z,72.80
2023-04-22T03:04:01.377Z,72.40
2023-04-22T03:07:23.784Z,72.40
2023-04-22T03:10:46.789Z,72.40
2023-04-22T03:14:09.268Z,72.40
2023-04-22T03:17:31.617Z,72.40
2023-04-22T03:20:56.364Z,72.40
2023-04-22T03:24:18.887Z,72.30
2023-04-22T03:27:45.218Z,73.20
2023-04-22T03:31:07.573Z,72.40
2023-04-22T03:34:30.463Z,72.40
2023-04-22T03:37:52.861Z,72.30
2023-04-22T03:41:21.566Z,72.40
2023-04-22T03:44:44.318Z,72.40
2023-04-22T03:48:06.996Z,72.40
2023-04-22T03:51:35.979Z,72.40
2023-04-22T03:55:03.440Z,72.40
2023-04-22T03:58:26.716Z,72.40
2023-04-22T04:01:53.075Z,72.40
2023-04-22T04:05:17.993Z,72.40
2023-04-22T04:08:40.420Z,72.30
2023-04-22T04:12:03.253Z,72.30
2023-04-22T04:15:32.760Z,72.30
2023-04-22T04:18:55.749Z,72.40
2023-04-22T04:22:21.455Z,72.50
2023-04-22T04:25:51.975Z,72.30
2023-04-22T04:29:14.429Z,72.30
2023-04-22T04:32:42.897Z,72.30
2023-04-22T04:36:10.260Z,72.40
2023-04-22T04:39:33.578Z,73.20
2023-04-22T04:42:57.924Z,72.40
2023-04-22T04:46:29.596Z,72.40
2023-04-22T04:49:53.878Z,72.40
2023-04-22T04:53:17.055Z,72.40
2023-04-22T04:56:41.243Z,73.20
2023-04-22T05:00:06.428Z,72.50
2023-04-22T05:03:28.915Z,72.40
2023-04-22T05:06:51.528Z,72.40
2023-04-22T05:10:14.438Z,72.50
2023-04-22T05:13:37.668Z,72.40
2023-04-22T05:17:01.966Z,72.50
2023-04-22T05:20:24.848Z,72.40
2023-04-22T05:23:47.245Z,72.40
2023-04-22T05:27:10.677Z,72.50
2023-04-22T05:30:33.026Z,72.40
2023-04-22T05:33:55.403Z,72.50
2023-04-22T05:37:18.885Z,72.60
2023-04-22T05:40:41.315Z,72.50
2023-04-22T05:44:05.963Z,72.60
2023-04-22T05:47:28.357Z,72.50
2023-04-22T05:50:51.604Z,72.50
2023-04-22T05:54:13.933Z,72.60
2023-04-22T05:57:36.351Z,72.50
2023-04-22T06:01:02.065Z,72.60
2023-04-22T06:04:45.280Z,72.60
2023-04-22T06:08:08.951Z,72.40
2023-04-22T06:11:32.157Z,72.40
2023-04-22T06:14:54.418Z,72.60
2023-04-22T06:18:16.886Z,73.20
2023-04-22T06:21:40.573Z,73.10
2023-04-22T06:25:03.345Z,73.10
2023-04-22T06:28:27.589Z,73.20
2023-04-22T06:31:54.347Z,73.30
2023-04-22T06:35:16.932Z,73.20
2023-04-22T06:38:39.294Z,72.90
2023-04-22T06:42:15.082Z,73.60
2023-04-22T06:45:57.664Z,74.40
2023-04-22T06:49:39.711Z,74.20
2023-04-22T06:53:17.314Z,74.40
2023-04-22T06:56:39.607Z,74.70
2023-04-22T07:00:02.502Z,74.70
2023-04-22T07:03:26.587Z,75.00
2023-04-22T07:06:57.342Z,75.30
2023-04-22T07:10:19.730Z,75.40
2023-04-22T07:14:02.011Z,75.50
2023-04-22T07:17:24.314Z,75.60
2023-04-22T07:20:46.613Z,76.20
2023-04-22T07:24:12.147Z,77.50
2023-04-22T07:27:37.245Z,78.30
2023-04-22T07:30:59.527Z,78.80
2023-04-22T07:34:21.836Z,79.40
2023-04-22T07:37:44.115Z,80.00
2023-04-22T07:41:06.423Z,80.50
2023-04-22T07:44:28.722Z,80.30
2023-04-22T07:47:51.076Z,79.90
2023-04-22T07:51:13.486Z,79.90
2023-04-22T07:54:35.783Z,79.90
2023-04-22T07:58:00.040Z,80.30
2023-04-22T08:01:22.597Z,80.20
2023-04-22T08:04:45.030Z,79.90
2023-04-22T08:08:07.966Z,79.70
2023-04-22T08:11:30.560Z,79.50
2023-04-22T08:14:52.865Z,79.70
2023-04-22T08:18:15.366Z,79.40
2023-04-22T08:21:38.343Z,79.50
2023-04-22T08:25:01.495Z,79.70
2023-04-22T08:28:23.815Z,79.40
2023-04-22T08:31:46.273Z,79.60
2023-04-22T08:35:09.030Z,79.80
2023-04-22T08:38:31.326Z,79.00
2023-04-22T08:41:53.962Z,78.80
2023-04-22T08:45:16.934Z,79.70
2023-04-22T08:48:39.993Z,78.10
2023-04-22T08:52:02.281Z,79.00
2023-04-22T08:55:25.877Z,77.60
2023-04-22T08:58:49.131Z,77.70
2023-04-22T09:02:17.907Z,77.80
2023-04-22T09:05:41.112Z,77.10
2023-04-22T09:09:03.537Z,77.40
2023-04-22T09:12:26.106Z,77.50
2023-04-22T09:15:48.411Z,76.80
2023-04-22T09:19:15.308Z,77.00
2023-04-22T09:22:43.168Z,77.10
2023-04-22T09:26:05.538Z,76.60
2023-04-22T09:29:31.847Z,76.60
2023-04-22T09:32:56.050Z,76.20
2023-04-22T09:36:23.699Z,76.60
2023-04-22T09:39:49.756Z,76.50
2023-04-22T09:43:12.806Z,76.70
2023-04-22T09:46:35.579Z,76.50
2023-04-22T09:49:57.844Z,76.50
2023-04-22T09:53:21.541Z,76.40
2023-04-22T09:56:49.364Z,76.40
2023-04-22T10:00:14.044Z,76.80
2023-04-22T10:03:36.344Z,76.60
2023-04-22T10:06:59.885Z,76.80
2023-04-22T10:10:23.909Z,77.50
2023-04-22T10:13:46.213Z,77.10
2023-04-22T10:17:10.044Z,76.90
2023-04-22T10:20:36.615Z,76.90
2023-04-22T10:24:00.322Z,76.60
2023-04-22T10:27:22.648Z,76.70
2023-04-22T10:30:44.912Z,76.70
2023-04-22T10:34:13.092Z,76.60
2023-04-22T10:37:35.826Z,76.50
2023-04-22T10:41:01.645Z,76.50
2023-04-22T10:44:28.647Z,76.50
2023-04-22T10:47:50.955Z,76.50
2023-04-22T10:51:40.148Z,77.00
2023-04-22T10:55:03.054Z,76.80
2023-04-22T10:58:25.681Z,77.00
2023-04-22T11:01:52.339Z,77.10
2023-04-22T11:05:27.492Z,76.40
2023-04-22T11:08:51.140Z,77.40
2023-04-22T11:12:39.719Z,77.20
2023-04-22T11:16:03.213Z,76.00
2023-04-22T11:19:25.551Z,76.60
2023-04-22T11:22:51.868Z,76.30
2023-04-22T11:26:14.065Z,75.80
2023-04-22T11:29:36.471Z,76.20
2023-04-22T11:33:00.801Z,75.30
2023-04-22T11:36:23.180Z,75.20
2023-04-22T11:40:05.185Z,76.40
2023-04-22T11:43:27.693Z,76.40
2023-04-22T11:46:49.960Z,75.60
2023-04-22T11:50:13.977Z,75.70
2023-04-22T11:53:37.078Z,75.00
2023-04-22T11:57:06.689Z,74.90
2023-04-22T12:00:34.423Z,74.40
2023-04-22T12:04:01.160Z,75.60
2023-04-22T12:07:23.697Z,75.80
2023-04-22T12:10:48.276Z,76.00
2023-04-22T12:14:12.095Z,76.10
2023-04-22T12:17:34.273Z,75.90
2023-04-22T12:21:08.499Z,77.20
2023-04-22T12:24:31.043Z,77.10
2023-04-22T12:27:53.337Z,77.40
2023-04-22T12:31:15.710Z,77.90
2023-04-22T12:34:38.053Z,77.70
2023-04-22T12:38:00.704Z,77.70
2023-04-22T12:41:23.711Z,77.90
2023-04-22T12:44:46.917Z,77.80
2023-04-22T12:48:09.458Z,77.80
2023-04-22T12:51:31.913Z,77.80
2023-04-22T12:54:54.204Z,77.80
2023-04-22T12:58:16.511Z,77.80
2023-04-22T13:01:38.964Z,77.90
2023-04-22T13:05:01.328Z,77.70
2023-04-22T13:08:23.636Z,77.60
2023-04-22T13:11:49.210Z,77.60
2023-04-22T13:15:12.039Z,77.50
2023-04-22T13:18:34.304Z,77.50
2023-04-22T13:21:56.498Z,77.50
2023-04-22T13:25:18.754Z,77.60
2023-04-22T13:28:41.007Z,77.50
2023-04-22T13:32:03.992Z,77.40
2023-04-22T13:35:26.247Z,77.30
2023-04-22T13:38:48.516Z,77.30
2023-04-22T13:42:11.358Z,77.30
2023-04-22T13:45:33.561Z,77.30
2023-04-22T13:48:56.717Z,77.20
2023-04-22T13:52:18.922Z,77.20
2023-04-22T13:55:43.034Z,77.00
2023-04-22T13:59:05.266Z,77.20
2023-04-22T14:02:27.707Z,77.00
2023-04-22T14:05:50.074Z,77.00
2023-04-22T14:09:12.477Z,77.00
2023-04-22T14:12:34.810Z,76.90
2023-04-22T14:15:57.665Z,76.90
2023-04-22T14:19:20.276Z,77.00
2023-04-22T14:22:42.632Z,76.90
2023-04-22T14:26:06.744Z,76.70
2023-04-22T14:29:29.930Z,76.80
2023-04-22T14:32:52.728Z,76.80
2023-04-22T14:36:15.898Z,76.90
2023-04-22T14:39:38.360Z,77.00
2023-04-22T14:43:03.331Z,76.90
2023-04-22T14:46:25.659Z,77.00
2023-04-22T14:49:47.982Z,76.80
2023-04-22T14:53:10.278Z,77.00
2023-04-22T14:56:32.518Z,77.00
2023-04-22T14:59:54.686Z,76.90
2023-04-22T15:03:17.110Z,76.80
2023-04-22T15:06:39.491Z,76.90
2023-04-22T15:10:02.008Z,76.80
2023-04-22T15:13:24.194Z,77.30
2023-04-22T15:16:46.795Z,77.00
2023-04-22T15:20:09.650Z,79.40
2023-04-22T15:23:31.954Z,80.60
2023-04-22T15:26:54.891Z,80.70
2023-04-22T15:30:17.307Z,80.50
2023-04-22T15:33:39.509Z,79.90
2023-04-22T15:37:01.823Z,79.80
2023-04-22T15:40:24.309Z,79.70
2023-04-22T15:43:46.646Z,78.40
2023-04-22T15:47:09.655Z,78.20
2023-04-22T15:50:32.049Z,78.10
2023-04-22T15:53:57.127Z,78.10
2023-04-22T15:57:19.988Z,78.00
2023-04-22T16:00:42.264Z,78.00
2023-04-22T16:04:04.996Z,77.90
2023-04-22T16:07:27.539Z,77.90
2023-04-22T16:10:49.804Z,77.10
2023-04-22T16:14:12.484Z,77.90
2023-04-22T16:17:34.830Z,78.20
2023-04-22T16:20:58.720Z,78.20
2023-04-22T16:24:21.042Z,78.00
2023-04-22T16:27:43.257Z,77.70
2023-04-22T16:31:05.665Z,78.30
2023-04-22T16:34:27.921Z,78.20
2023-04-22T16:37:50.446Z,78.50
2023-04-22T16:41:14.970Z,78.50
2023-04-22T16:44:37.312Z,78.50
2023-04-22T16:47:59.607Z,78.60
2023-04-22T16:51:22.037Z,78.00
2023-04-22T16:54:44.311Z,77.60
2023-04-22T16:58:06.933Z,77.80
2023-04-22T17:01:30.154Z,77.60
2023-04-22T17:04:52.477Z,77.60
2023-04-22T17:08:14.812Z,77.80
2023-04-22T17:11:37.157Z,78.50
2023-04-22T17:14:59.560Z,78.90
2023-04-22T17:18:22.107Z,79.40
2023-04-22T17:21:44.431Z,80.20
2023-04-22T17:25:07.317Z,80.00
2023-04-22T17:28:29.590Z,79.90
2023-04-22T17:31:52.172Z,80.00
2023-04-22T17:35:14.487Z,80.10
2023-04-22T17:38:36.726Z,80.00
2023-04-22T17:41:59.053Z,79.40
2023-04-22T17:45:21.533Z,79.40
2023-04-22T17:48:46.615Z,80.00
2023-04-22T17:52:08.876Z,79.60
2023-04-22T17:55:34.994Z,78.50
2023-04-22T17:58:57.263Z,78.70
2023-04-22T18:02:20.505Z,79.40
2023-04-22T18:05:44.659Z,79.20
2023-04-22T18:09:07.036Z,79.40
2023-04-22T18:12:30.858Z,79.30
2023-04-22T18:15:53.237Z,79.40
2023-04-22T18:19:15.539Z,79.30
2023-04-22T18:22:37.806Z,78.70
2023-04-22T18:26:00.164Z,79.20
2023-04-22T18:29:22.397Z,80.20
2023-04-22T18:32:44.696Z,79.70
2023-04-22T18:36:07.177Z,79.60
2023-04-22T18:39:29.488Z,79.40
2023-04-22T18:42:51.832Z,79.70
2023-04-22T18:46:14.192Z,79.90
2023-04-22T18:49:36.502Z,79.70
2023-04-22T18:52:58.854Z,79.20
2023-04-22T18:56:21.114Z,79.40
2023-04-22T18:59:43.443Z,79.00
2023-04-22T19:03:05.843Z,78.70
2023-04-22T19:06:29.048Z,78.50
2023-04-22T19:09:51.248Z,78.50
2023-04-22T19:13:22.902Z,78.40
2023-04-22T19:16:51.330Z,78.70
2023-04-22T19:20:13.754Z,78.50
2023-04-22T19:23:36.500Z,78.70
2023-04-22T19:27:00.367Z,79.00
2023-04-22T19:30:26.362Z,78.90
2023-04-22T19:33:48.736Z,79.30
2023-04-22T19:37:11.022Z,79.80
2023-04-22T19:40:34.556Z,79.40
2023-04-22T19:43:58.988Z,79.10
2023-04-22T19:47:21.472Z,79.10
2023-04-22T19:50:44.716Z,79.10
2023-04-22T19:54:08.406Z,79.10
2023-04-22T19:57:30.696Z,79.30
2023-04-22T20:00:53.381Z,79.30
2023-04-22T20:04:15.998Z,79.40
2023-04-22T20:07:39.871Z,79.60
2023-04-22T20:11:02.429Z,79.30
2023-04-22T20:14:26.223Z,79.50
2023-04-22T20:17:49.060Z,79.50
2023-04-22T20:21:11.718Z,79.60
2023-04-22T20:24:37.216Z,79.60
2023-04-22T20:27:59.703Z,79.70
2023-04-22T20:31:23.473Z,79.60
2023-04-22T20:34:46.093Z,79.60
2023-04-22T20:38:13.185Z,80.00
2023-04-22T20:41:41.503Z,80.70
2023-04-22T20:45:07.186Z,80.30
2023-04-22T20:48:29.511Z,80.70
2023-04-22T20:51:53.009Z,80.90
2023-04-22T20:55:15.383Z,81.00
2023-04-22T20:58:37.538Z,81.00
2023-04-22T21:02:00.312Z,81.50
2023-04-22T21:05:22.871Z,81.50
2023-04-22T21:08:47.032Z,81.60
2023-04-22T21:12:10.794Z,80.60
2023-04-22T21:15:33.921Z,82.10
2023-04-22T21:19:00.387Z,81.90
2023-04-22T21:22:22.817Z,81.70
2023-04-22T21:25:46.624Z,81.70
2023-04-22T21:29:09.045Z,81.00
2023-04-22T21:32:32.744Z,81.50
2023-04-22T21:35:55.754Z,80.80
2023-04-22T21:39:18.822Z,80.80
2023-04-22T21:42:41.694Z,80.10
2023-04-22T21:46:03.966Z,79.80
2023-04-22T21:49:26.403Z,79.80
2023-04-22T21:52:49.347Z,79.80
2023-04-22T21:56:11.858Z,79.80
2023-04-22T21:59:34.069Z,79.80
2023-04-22T22:02:56.459Z,79.80
2023-04-22T22:06:19.247Z,79.70
2023-04-22T22:09:43.893Z,79.70
2023-04-22T22:13:06.208Z,79.80
2023-04-22T22:16:28.888Z,79.80
2023-04-22T22:19:51.454Z,79.80
2023-04-22T22:23:13.727Z,80.00
2023-04-22T22:26:36.531Z,80.00
2023-04-22T22:29:58.762Z,80.00
2023-04-22T22:33:20.981Z,80.00
2023-04-22T22:36:43.235Z,79.90
2023-04-22T22:40:06.343Z,80.00
2023-04-22T22:43:28.632Z,79.90
2023-04-22T22:46:50.901Z,80.00
2023-04-22T22:50:13.214Z,80.10
2023-04-22T22:53:36.715Z,80.10
2023-04-22T22:56:59.060Z,80.30
2023-04-22T23:00:21.442Z,80.20
2023-04-22T23:03:44.046Z,80.40
2023-04-22T23:07:06.480Z,80.50
2023-04-22T23:10:28.770Z,80.50
2023-04-22T23:13:50.974Z,80.50
2023-04-22T23:17:13.544Z,80.50
2023-04-22T23:20:37.080Z,80.50
2023-04-22T23:24:01.392Z,80.50
2023-04-22T23:27:23.846Z,80.50
2023-04-22T23:30:47.385Z,80.50
2023-04-22T23:34:09.853Z,80.50
2023-04-22T23:37:32.681Z,80.60
2023-04-22T23:40:54.927Z,80.50
2023-04-22T23:44:17.240Z,80.50
2023-04-22T23:47:39.955Z,80.70
2023-04-22T23:51:02.527Z,81.00
2023-04-22T23:54:25.099Z,80.80
2023-04-22T23:57:47.573Z,80.70
